Time;durP1;ratioP1;P1;durP2;ratioP2;P2;SDS_P1;SDS_P2;PMS_P1;PMS_P2;Temp;Humidity;BMP_temperature;BMP_pressure;BME280_temperature;BME280_humidity;BME280_pressure;Samples;Min_cycle;Max_cycle;Signal;HPM_P1;HPM_P2
2022/03/07 00:02:09;;;;;;;5.53;1.45;;;;;;;-1.13;65.63;98910.41;6111556;23;20021;-63
2022/03/07 00:04:34;;;;;;;6.30;1.60;;;;;;;-1.27;65.84;98885.63;6160671;23;20107;-66
2022/03/07 00:07:00;;;;;;;8.60;1.80;;;;;;;-1.15;66.12;98899.06;6185432;23;20427;-66
2022/03/07 00:09:26;;;;;;;5.78;1.42;;;;;;;-1.19;65.92;98905.50;6135164;23;20024;-66
2022/03/07 00:11:52;;;;;;;6.03;1.70;;;;;;;-1.19;65.96;98902.84;6136274;23;20362;-66
2022/03/07 00:14:18;;;;;;;4.95;1.40;;;;;;;-1.18;66.17;98896.59;6136324;23;20075;-65
2022/03/07 00:16:44;;;;;;;5.88;1.33;;;;;;;-1.29;66.02;98876.91;6160507;23;20350;-67
2022/03/07 00:19:10;;;;;;;6.70;1.50;;;;;;;-1.11;66.16;98905.88;6185318;23;20100;-64
2022/03/07 00:21:37;;;;;;;5.78;1.40;;;;;;;-1.09;66.29;98899.53;6184537;23;20028;-66
2022/03/07 00:24:04;;;;;;;6.80;1.77;;;;;;;-1.12;65.66;98905.03;6160106;23;20031;-67
2022/03/07 00:26:30;;;;;;;4.95;1.35;;;;;;;-1.09;66.26;98899.53;6160891;23;20650;-64
2022/03/07 00:28:55;;;;;;;6.82;1.67;;;;;;;-1.13;66.30;98898.03;6160951;23;20109;-65
2022/03/07 00:31:22;;;;;;;7.45;1.60;;;;;;;-1.13;66.45;98887.41;6160825;23;20031;-65
2022/03/07 00:33:48;;;;;;;5.10;1.30;;;;;;;-1.14;66.08;98892.78;6185212;23;20017;-67
2022/03/07 00:36:14;;;;;;;5.55;1.45;;;;;;;-1.14;66.01;98890.16;6160831;23;20024;-66
2022/03/07 00:38:40;;;;;;;5.53;1.25;;;;;;;-1.16;66.03;98889.41;6185361;23;20017;-65
2022/03/07 00:41:08;;;;;;;3.95;1.15;;;;;;;-1.14;65.78;98891.00;6185826;23;20024;-62
2022/03/07 00:43:34;;;;;;;5.03;1.45;;;;;;;-1.15;66.58;98894.59;6184781;23;20048;-65
2022/03/07 00:46:03;;;;;;;5.25;1.25;;;;;;;-1.16;66.22;98886.75;6160009;23;20111;-66
2022/03/07 00:48:29;;;;;;;4.35;1.15;;;;;;;-1.13;66.02;98886.53;6160366;23;20398;-65
2022/03/07 00:50:56;;;;;;;5.10;1.20;;;;;;;-1.30;65.96;98859.28;6136015;23;20044;-65
2022/03/07 00:53:25;;;;;;;4.65;1.13;;;;;;;-1.15;66.02;98891.09;6211792;23;20016;-65
2022/03/07 00:55:52;;;;;;;5.85;1.58;;;;;;;-1.16;65.71;98881.44;6160413;23;20139;-65
2022/03/07 00:58:18;;;;;;;5.78;1.27;;;;;;;-1.16;66.71;98884.09;6135458;23;20414;-66
2022/03/07 01:00:47;;;;;;;6.18;1.52;;;;;;;-1.19;66.82;98871.88;6111240;23;20029;-65
2022/03/07 01:03:13;;;;;;;5.18;1.30;;;;;;;-1.19;67.37;98871.03;6136173;23;20024;-64
2022/03/07 01:05:40;;;;;;;5.43;1.30;;;;;;;-1.09;67.53;98874.81;6159901;23;20064;-65
2022/03/07 01:08:08;;;;;;;7.95;1.98;;;;;;;-1.14;67.35;98874.22;6159863;23;20148;-65
2022/03/07 01:10:35;;;;;;;5.30;1.40;;;;;;;-1.18;66.87;98872.72;6184681;23;20020;-66
2022/03/07 01:13:00;;;;;;;7.35;1.70;;;;;;;-1.13;67.11;98870.63;6161829;23;20386;-67
2022/03/07 01:15:27;;;;;;;5.32;1.50;;;;;;;-1.15;67.67;98867.22;6161322;23;20021;-64
2022/03/07 01:17:59;;;;;;;5.68;1.30;;;;;;;-1.16;67.80;98860.25;6135399;23;20020;-63
2022/03/07 01:20:26;;;;;;;5.60;1.35;;;;;;;-1.09;67.24;98861.56;6160273;23;20450;-65
2022/03/07 01:22:51;;;;;;;4.93;1.30;;;;;;;-1.24;67.62;98843.00;6185112;23;20032;-63
2022/03/07 01:25:17;;;;;;;6.28;1.20;;;;;;;-1.29;67.49;98842.44;6136903;23;20024;-63
2022/03/07 01:27:43;;;;;;;7.35;1.42;;;;;;;-1.15;67.34;98864.59;6185981;23;20021;-64
2022/03/07 01:30:09;;;;;;;7.57;1.48;;;;;;;-1.30;67.60;98834.59;6185350;23;20454;-63
2022/03/07 01:32:35;;;;;;;8.73;1.92;;;;;;;-1.15;68.20;98859.28;6185676;23;20025;-64
2022/03/07 01:35:02;;;;;;;6.22;1.60;;;;;;;-1.20;67.38;98853.44;6161237;23;20027;-63
2022/03/07 01:37:28;;;;;;;8.05;1.80;;;;;;;-1.20;67.79;98864.03;6186091;23;20087;-65
2022/03/07 01:39:54;;;;;;;7.78;2.03;;;;;;;-1.28;68.14;98846.81;6185808;23;20083;-63
2022/03/07 01:42:20;;;;;;;8.65;2.10;;;;;;;-1.22;67.96;98861.47;6136074;23;20032;-63
2022/03/07 01:44:46;;;;;;;5.32;1.52;;;;;;;-1.33;68.19;98856.84;6212123;23;20016;-63
2022/03/07 01:47:12;;;;;;;9.13;2.30;;;;;;;-1.28;68.49;98864.50;6186034;23;20035;-64
2022/03/07 01:49:39;;;;;;;6.80;1.83;;;;;;;-1.27;67.56;98859.09;6185660;23;20026;-63
2022/03/07 01:52:07;;;;;;;10.02;2.50;;;;;;;-1.25;68.29;98859.84;6212634;23;20056;-64
2022/03/07 01:54:33;;;;;;;5.97;1.40;;;;;;;-1.32;67.78;98850.56;6212532;23;20095;-64
2022/03/07 01:56:59;;;;;;;7.50;1.88;;;;;;;-1.26;68.01;98859.97;6160859;23;20106;-65
2022/03/07 01:59:27;;;;;;;5.95;1.40;;;;;;;-1.24;68.06;98856.25;6161566;23;20578;-64
2022/03/07 02:01:54;;;;;;;6.28;1.58;;;;;;;-1.23;68.05;98852.66;6161296;23;20025;-65
2022/03/07 02:04:22;;;;;;;5.05;1.10;;;;;;;-1.20;67.74;98856.09;6161264;23;20013;-65
2022/03/07 02:06:48;;;;;;;5.18;1.20;;;;;;;-1.33;68.23;98832.97;6185865;23;20016;-65
2022/03/07 02:09:16;;;;;;;6.97;1.55;;;;;;;-1.20;68.19;98854.28;6185903;23;20021;-63
2022/03/07 02:11:44;;;;;;;5.18;1.13;;;;;;;-1.27;68.04;98861.75;6136929;23;20028;-63
2022/03/07 02:14:30;;;;;;;5.10;1.10;;;;;;;-1.27;68.32;98864.41;6161484;23;20363;-64
2022/03/07 02:16:58;;;;;;;4.03;1.10;;;;;;;-1.32;68.68;98839.97;6161741;23;20055;-65
2022/03/07 02:19:24;;;;;;;4.75;1.20;;;;;;;-1.27;68.21;98859.09;6186233;23;20020;-66
2022/03/07 02:22:00;;;;;;;4.03;1.10;;;;;;;-1.19;67.99;98860.44;6160687;23;20031;-65
2022/03/07 02:24:31;;;;;;;6.05;1.10;;;;;;;-1.25;67.76;98862.50;6186040;23;20030;-64
2022/03/07 02:27:04;;;;;;;3.70;1.08;;;;;;;-1.27;68.21;98864.41;6162392;23;20031;-66
2022/03/07 02:29:31;;;;;;;5.20;1.20;;;;;;;-1.27;68.28;98864.41;6185876;23;20080;-64
2022/03/07 02:32:02;;;;;;;4.75;1.05;;;;;;;-1.31;68.47;98852.31;6185539;23;20029;-65
2022/03/07 02:34:31;;;;;;;4.40;1.10;;;;;;;-1.37;68.23;98838.56;6137028;23;20033;-63
2022/03/07 02:36:57;;;;;;;4.05;1.10;;;;;;;-1.42;68.47;98838.88;6160693;23;20126;-65
2022/03/07 02:39:26;;;;;;;5.65;1.15;;;;;;;-1.30;69.41;98869.91;6186508;23;20043;-64
2022/03/07 02:41:52;;;;;;;5.45;1.52;;;;;;;-1.27;68.59;98869.72;6136698;23;20423;-64
2022/03/07 02:44:18;;;;;;;6.57;1.42;;;;;;;-1.28;68.62;98868.03;6186748;23;20470;-65
2022/03/07 02:46:44;;;;;;;6.03;1.40;;;;;;;-1.26;68.79;98866.09;6162088;23;20359;-65
2022/03/07 02:49:10;;;;;;;8.48;1.33;;;;;;;-1.41;68.77;98842.38;6161931;23;20170;-65
2022/03/07 02:51:36;;;;;;;7.13;1.40;;;;;;;-1.23;68.90;98876.53;6162037;23;20020;-64
2022/03/07 02:54:03;;;;;;;6.82;1.50;;;;;;;-1.39;68.73;98851.94;6186225;23;20107;-63
2022/03/07 02:56:28;;;;;;;4.38;1.25;;;;;;;-1.39;69.13;98870.50;6185750;23;20068;-65
2022/03/07 02:58:54;;;;;;;8.93;1.60;;;;;;;-1.43;69.45;98868.94;6212507;23;20021;-64
2022/03/07 03:01:20;;;;;;;11.85;1.40;;;;;;;-1.36;69.44;98880.03;6161283;23;20183;-65
2022/03/07 03:03:46;;;;;;;7.25;1.67;;;;;;;-1.34;69.12;98884.28;6111925;23;20024;-65
2022/03/07 03:06:12;;;;;;;11.05;1.38;;;;;;;-1.38;69.00;98874.84;6185472;23;20155;-65
2022/03/07 03:08:38;;;;;;;6.75;1.60;;;;;;;-1.41;69.52;98867.06;6185482;23;20020;-63
2022/03/07 03:11:03;;;;;;;6.20;1.17;;;;;;;-1.36;69.02;98870.28;6136163;23;20050;-64
2022/03/07 03:13:29;;;;;;;5.80;1.30;;;;;;;-1.53;69.22;98847.47;6185664;23;20351;-64
2022/03/07 03:15:55;;;;;;;5.93;1.25;;;;;;;-1.38;69.48;98871.34;6160681;23;20021;-65
2022/03/07 03:18:22;;;;;;;5.25;1.30;;;;;;;-1.38;69.15;98872.19;6160611;23;20438;-65
2022/03/07 03:20:50;;;;;;;9.85;2.03;;;;;;;-1.45;69.60;98870.84;6161043;23;20371;-64
2022/03/07 03:23:17;;;;;;;4.63;1.10;;;;;;;-1.41;69.13;98867.06;6185104;23;20028;-64
2022/03/07 03:25:43;;;;;;;4.75;1.30;;;;;;;-1.45;69.60;98862.91;6185409;23;20032;-63
2022/03/07 03:28:09;;;;;;;4.88;1.30;;;;;;;-1.46;69.72;98863.88;6185620;23;20028;-63
2022/03/07 03:30:35;;;;;;;6.43;1.60;;;;;;;-1.48;69.69;98876.34;6135789;23;20078;-63
2022/03/07 03:33:01;;;;;;;5.32;1.20;;;;;;;-1.43;69.28;98871.59;6136184;23;20581;-62
2022/03/07 03:35:26;;;;;;;6.50;1.17;;;;;;;-1.51;69.56;98850.88;6185721;23;20521;-65
2022/03/07 03:37:52;;;;;;;5.70;1.33;;;;;;;-1.70;69.57;98829.97;6212183;23;20059;-64
2022/03/07 03:40:18;;;;;;;7.60;1.45;;;;;;;-1.43;69.94;98871.59;6160151;23;20028;-64
2022/03/07 03:42:45;;;;;;;8.38;1.63;;;;;;;-1.47;69.88;98868.28;6135924;23;20029;-65
2022/03/07 03:45:11;;;;;;;6.47;1.65;;;;;;;-1.40;69.73;98867.91;6185253;23;20046;-65
2022/03/07 03:47:38;;;;;;;7.30;1.63;;;;;;;-1.40;70.29;98868.75;6212259;23;20017;-64
2022/03/07 03:50:07;;;;;;;7.00;1.70;;;;;;;-1.42;69.89;98865.38;6185475;23;20016;-65
2022/03/07 03:52:33;;;;;;;7.28;1.60;;;;;;;-1.57;69.99;98837.16;6185302;23;20470;-63
2022/03/07 03:55:01;;;;;;;5.28;1.38;;;;;;;-1.43;70.37;98857.50;6160804;23;20017;-65
2022/03/07 03:57:29;;;;;;;5.95;1.52;;;;;;;-1.41;70.19;98856.47;6185472;23;20020;-65
2022/03/07 03:59:54;;;;;;;6.28;1.50;;;;;;;-1.41;70.62;98856.47;6160066;23;20370;-62
2022/03/07 04:02:21;;;;;;;4.55;1.33;;;;;;;-1.41;70.22;98861.78;6211666;23;20048;-64
2022/03/07 04:04:47;;;;;;;9.75;1.60;;;;;;;-1.45;69.98;98854.97;6185385;23;20423;-65
2022/03/07 04:07:13;;;;;;;5.78;1.48;;;;;;;-1.61;70.65;98835.63;6160680;23;20104;-65
2022/03/07 04:09:39;;;;;;;5.13;1.25;;;;;;;-1.45;70.75;98860.25;6135742;23;20100;-65
2022/03/07 04:12:05;;;;;;;7.13;1.38;;;;;;;-1.44;70.45;98855.81;6135748;23;20078;-63
2022/03/07 04:14:31;;;;;;;7.75;1.30;;;;;;;-1.58;70.14;98838.09;6160317;23;20093;-63
2022/03/07 04:16:57;;;;;;;7.18;1.60;;;;;;;-1.47;70.73;98851.53;6159803;23;20062;-67
2022/03/07 04:19:23;;;;;;;6.07;1.40;;;;;;;-1.43;70.42;98858.34;6160376;23;20063;-65
2022/03/07 04:21:49;;;;;;;5.95;1.38;;;;;;;-1.38;70.45;98866.88;6160810;23;20057;-65
2022/03/07 04:24:15;;;;;;;7.75;1.70;;;;;;;-1.39;70.22;98865.19;6135890;23;20098;-63
2022/03/07 04:26:42;;;;;;;4.35;1.30;;;;;;;-1.34;70.33;98863.09;6185299;23;20052;-66
2022/03/07 04:29:08;;;;;;;6.53;1.33;;;;;;;-1.33;69.94;98863.94;6211983;23;20031;-65
2022/03/07 04:31:36;;;;;;;5.80;1.40;;;;;;;-1.61;70.56;98822.38;6087455;23;20083;-63
2022/03/07 04:34:02;;;;;;;8.75;1.70;;;;;;;-1.40;70.78;98876.72;6211767;23;20020;-64
2022/03/07 04:36:28;;;;;;;6.03;1.55;;;;;;;-1.37;70.74;98863.28;6185550;23;20024;-68
2022/03/07 04:38:54;;;;;;;6.75;1.58;;;;;;;-1.36;70.97;98874.72;6160355;23;20035;-65
2022/03/07 04:41:20;;;;;;;7.88;1.75;;;;;;;-1.33;70.26;98864.78;6136331;23;20446;-65
2022/03/07 04:43:46;;;;;;;9.23;1.60;;;;;;;-1.26;71.22;98866.09;6186593;23;20070;-65
2022/03/07 04:46:12;;;;;;;10.07;1.63;;;;;;;-1.29;70.10;98871.59;6136979;23;20023;-65
2022/03/07 04:48:37;;;;;;;10.60;2.22;;;;;;;-1.33;70.88;98854.19;6186459;23;20017;-67
2022/03/07 04:51:04;;;;;;;10.40;1.75;;;;;;;-1.32;71.16;98863.81;6136532;23;20043;-65
2022/03/07 04:53:30;;;;;;;6.43;1.50;;;;;;;-1.34;70.81;98863.09;6160914;23;20021;-66
2022/03/07 04:55:56;;;;;;;15.25;1.88;;;;;;;-1.39;70.20;98843.09;6161673;23;20039;-70
2022/03/07 04:58:22;;;;;;;6.10;1.67;;;;;;;-1.18;70.60;98862.13;6114071;23;20068;-66
2022/03/07 05:00:48;;;;;;;6.97;1.80;;;;;;;-1.29;70.51;98863.63;6137818;23;20028;-65
2022/03/07 05:03:14;;;;;;;9.55;1.73;;;;;;;-1.26;70.11;98859.97;6137509;23;20536;-67
2022/03/07 05:05:40;;;;;;;8.23;1.67;;;;;;;-1.24;70.41;98856.25;6137943;23;20025;-67
2022/03/07 05:08:06;;;;;;;8.70;1.48;;;;;;;-1.20;70.07;98856.09;6113131;23;20020;-66
2022/03/07 05:10:32;;;;;;;5.68;1.27;;;;;;;-1.23;70.15;98850.00;6162427;23;20473;-66
2022/03/07 05:12:57;;;;;;;8.77;1.40;;;;;;;-1.25;70.59;98846.59;6138234;23;20071;-66
2022/03/07 05:15:24;;;;;;;7.07;1.30;;;;;;;-1.18;69.90;98847.06;6138661;23;20517;-66
2022/03/07 05:17:53;;;;;;;10.32;1.65;;;;;;;-1.14;69.62;98853.00;6115644;23;20024;-66
2022/03/07 05:20:20;;;;;;;6.35;1.50;;;;;;;-1.13;70.06;98850.28;6138974;23;20024;-68
2022/03/07 05:22:47;;;;;;;8.90;1.83;;;;;;;-1.13;69.79;98858.25;6162996;23;20384;-67
2022/03/07 05:25:14;;;;;;;6.65;1.52;;;;;;;-1.13;69.90;98860.00;6113738;23;20031;-66
2022/03/07 05:27:41;;;;;;;7.65;1.38;;;;;;;-1.16;70.00;98860.25;6142542;23;20016;-77
2022/03/07 05:30:13;;;;;;;16.65;2.80;;;;;;;-1.09;69.34;98858.91;6135513;23;20091;-68
2022/03/07 05:32:39;;;;;;;9.15;1.77;;;;;;;-1.07;69.45;98865.78;6160414;23;20068;-69
2022/03/07 05:35:06;;;;;;;6.20;1.55;;;;;;;-1.08;69.40;98863.25;6132784;23;20162;-71
2022/03/07 05:37:32;;;;;;;6.18;1.50;;;;;;;-1.06;69.52;98869.28;6085796;23;20033;-68
2022/03/07 05:39:58;;;;;;;6.55;1.88;;;;;;;-1.08;69.62;98861.44;6075825;23;20061;-73
2022/03/07 05:42:24;;;;;;;7.75;1.83;;;;;;;-1.03;69.11;98869.94;6151504;23;20018;-72
2022/03/07 05:44:50;;;;;;;6.82;1.60;;;;;;;-1.00;69.08;98871.56;6052845;23;20030;-68
2022/03/07 05:47:16;;;;;;;45.30;4.03;;;;;;;-1.04;68.83;98855.00;6052698;23;20057;-68
2022/03/07 05:49:41;;;;;;;10.00;1.80;;;;;;;-0.92;69.14;98873.72;6053816;23;20527;-72
2022/03/07 05:52:07;;;;;;;8.88;1.77;;;;;;;-0.92;68.87;98873.72;6081713;23;20343;-72
2022/03/07 05:54:33;;;;;;;7.75;2.15;;;;;;;-0.96;68.54;98857.16;6079561;23;20028;-76
2022/03/07 05:56:59;;;;;;;8.98;2.47;;;;;;;-1.02;68.91;98868.16;6078205;23;20340;-67
2022/03/07 05:59:25;;;;;;;16.52;3.35;;;;;;;-0.99;68.93;98867.94;6100065;23;20021;-69
2022/03/07 06:01:51;;;;;;;12.20;3.03;;;;;;;-0.96;68.72;98875.72;6077984;23;20021;-69
2022/03/07 06:04:17;;;;;;;11.38;2.80;;;;;;;-0.89;68.66;98879.69;6054880;23;20029;-68
2022/03/07 06:06:43;;;;;;;7.85;2.17;;;;;;;-0.85;68.04;98880.34;6058069;23;20529;-73
2022/03/07 06:09:09;;;;;;;10.75;3.08;;;;;;;-0.81;68.42;98882.69;6079766;23;20033;-74
2022/03/07 06:11:35;;;;;;;16.63;2.40;;;;;;;-0.84;68.24;98877.59;6077500;23;20081;-70
2022/03/07 06:14:01;;;;;;;10.52;2.33;;;;;;;-0.75;67.73;98882.31;6077507;23;20029;-65
2022/03/07 06:16:27;;;;;;;11.70;1.85;;;;;;;-0.71;67.65;98882.09;6100407;23;20036;-66
2022/03/07 06:18:53;;;;;;;7.47;1.90;;;;;;;-0.68;67.96;98893.38;6077599;23;20044;-72
2022/03/07 06:21:19;;;;;;;13.65;2.63;;;;;;;-0.61;67.41;98891.19;6079347;23;20021;-67
2022/03/07 06:23:45;;;;;;;12.95;2.63;;;;;;;-0.62;67.62;98887.69;6103245;23;20100;-70
2022/03/07 06:26:11;;;;;;;14.30;2.70;;;;;;;-0.59;67.19;98889.25;6052410;23;20281;-69
2022/03/07 06:28:37;;;;;;;6.88;1.70;;;;;;;-0.52;67.06;98895.88;6087145;23;20021;-76
2022/03/07 06:31:03;;;;;;;8.38;2.00;;;;;;;-0.41;67.07;98889.88;6059709;23;20061;-68
2022/03/07 06:33:29;;;;;;;10.23;1.98;;;;;;;-0.42;67.17;98899.63;6101568;23;20072;-69
2022/03/07 06:35:55;;;;;;;11.35;2.15;;;;;;;-0.56;67.19;98870.47;6106123;23;20076;-72
2022/03/07 06:41:07;;;;;;;8.07;1.98;;;;;;;-0.28;66.85;98898.72;6139251;23;20029;-75
2022/03/07 06:43:33;;;;;;;10.73;2.60;;;;;;;-0.53;66.10;98859.66;6089867;23;20136;-74
2022/03/07 06:46:00;;;;;;;8.82;2.50;;;;;;;-0.46;66.48;98855.66;6064894;23;20494;-70
2022/03/07 06:48:26;;;;;;;14.68;3.33;;;;;;;-0.08;66.30;98898.22;6106948;23;20252;-73
2022/03/07 06:50:52;;;;;;;27.27;4.22;;;;;;;-0.02;65.73;98896.97;6080841;23;20024;-72
2022/03/07 06:53:18;;;;;;;15.00;2.60;;;;;;;0.01;65.35;98901.25;6054539;23;20021;-70
2022/03/07 06:55:44;;;;;;;23.52;3.17;;;;;;;0.01;65.07;98899.44;6053174;23;20034;-71
2022/03/07 06:58:12;;;;;;;12.35;3.13;;;;;;;-0.14;65.38;98908.44;6078637;23;20028;-71
2022/03/07 07:00:38;;;;;;;13.93;2.78;;;;;;;-0.16;65.80;98899.72;6077856;23;20072;-75
2022/03/07 07:03:05;;;;;;;10.27;2.72;;;;;;;-0.07;65.35;98899.13;6077411;23;20028;-76
2022/03/07 07:05:32;;;;;;;8.18;2.55;;;;;;;-0.11;65.50;98905.56;6084441;23;20063;-75
2022/03/07 07:07:59;;;;;;;7.97;2.15;;;;;;;-0.09;65.42;98895.69;6083242;23;19998;-73
2022/03/07 07:10:25;;;;;;;7.15;2.30;;;;;;;-0.11;65.60;98894.94;6115620;23;20283;-74
2022/03/07 07:12:52;;;;;;;11.57;2.58;;;;;;;-0.06;64.60;98898.16;6098291;23;20028;-73
2022/03/07 07:15:19;;;;;;;8.95;3.00;;;;;;;-0.10;65.30;98862.13;6064145;23;20017;-71
2022/03/07 07:17:45;;;;;;;8.55;2.80;;;;;;;0.08;65.33;98897.22;6127443;23;20040;-71
2022/03/07 07:20:12;;;;;;;8.80;2.45;;;;;;;0.08;64.28;98892.75;6157473;23;20140;-74
2022/03/07 07:22:39;;;;;;;18.50;3.20;;;;;;;0.15;65.12;98888.72;6112187;23;20036;-74
2022/03/07 07:25:10;;;;;;;18.20;2.92;;;;;;;0.13;64.14;98876.50;6078603;23;20085;-72
2022/03/07 07:27:38;;;;;;;19.40;3.42;;;;;;;-0.10;64.69;98848.84;6144912;23;20059;-68
2022/03/07 07:30:07;;;;;;;14.80;3.72;;;;;;;0.20;64.09;98881.28;6086218;23;20341;-73
2022/03/07 07:32:33;;;;;;;12.30;3.35;;;;;;;0.14;64.99;98886.16;6089548;23;20044;-77
2022/03/07 07:35:00;;;;;;;22.25;6.07;;;;;;;0.31;64.20;98885.00;6075888;23;20018;-76
2022/03/07 07:40:42;;;;;;;19.88;3.90;;;;;;;0.28;64.13;98871.94;6154142;23;20025;-72
2022/03/07 07:43:08;;;;;;;14.57;5.22;;;;;;;0.46;63.82;98882.13;6067990;23;20112;-75
2022/03/07 07:45:35;;;;;;;18.98;3.08;;;;;;;0.53;63.42;98893.19;6074077;23;20033;-75
2022/03/07 07:48:01;;;;;;;15.20;3.30;;;;;;;0.50;63.66;98877.47;6079199;23;20025;-75
2022/03/07 07:50:27;;;;;;;16.15;3.95;;;;;;;0.44;63.84;98885.88;6073425;23;20033;-73
2022/03/07 07:52:57;;;;;;;20.48;4.15;;;;;;;0.36;64.21;98890.84;6073150;23;20021;-71
2022/03/07 07:55:24;;;;;;;18.85;4.93;;;;;;;0.61;63.73;98890.84;6093527;23;20073;-71
2022/03/07 07:57:50;;;;;;;16.50;3.78;;;;;;;0.41;63.87;98867.47;6069792;23;20713;-70
2022/03/07 08:00:19;;;;;;;14.55;3.78;;;;;;;0.55;62.95;98893.97;6070030;23;20022;-70
2022/03/07 08:02:50;;;;;;;11.70;3.42;;;;;;;0.55;63.07;98885.97;6024318;23;20022;-73
2022/03/07 08:05:17;;;;;;;14.43;2.92;;;;;;;0.63;62.67;98888.94;6097735;23;20073;-73
2022/03/07 08:07:44;;;;;;;14.95;3.05;;;;;;;0.33;63.83;98881.31;6098276;23;20045;-73
2022/03/07 08:10:11;;;;;;;16.17;3.03;;;;;;;-0.01;63.82;98829.59;6098499;23;20040;-74
2022/03/07 08:12:37;;;;;;;17.02;3.67;;;;;;;0.39;63.72;98880.84;6078433;23;20047;-74
2022/03/07 08:15:05;;;;;;;10.65;2.83;;;;;;;0.33;64.10;98875.09;6075072;23;20089;-75
2022/03/07 08:17:31;;;;;;;11.43;2.83;;;;;;;0.36;63.77;98872.25;6096716;23;20026;-74
2022/03/07 08:19:58;;;;;;;8.95;2.80;;;;;;;0.57;63.59;98878.72;6095297;23;20286;-74
2022/03/07 08:22:24;;;;;;;13.15;2.97;;;;;;;0.63;62.26;98873.00;6097081;23;20359;-75
2022/03/07 08:24:50;;;;;;;15.98;2.65;;;;;;;0.67;62.29;98869.16;6052382;23;20100;-71
2022/03/07 08:27:17;;;;;;;14.02;3.13;;;;;;;0.82;61.96;98877.00;6079317;23;20052;-75
2022/03/07 08:29:43;;;;;;;10.60;2.85;;;;;;;1.05;60.82;98878.03;6073006;23;20030;-69
2022/03/07 08:32:11;;;;;;;17.80;2.95;;;;;;;1.06;60.48;98859.28;6054752;23;20037;-79
2022/03/07 08:34:38;;;;;;;12.25;3.60;;;;;;;1.52;59.21;98881.69;6052300;23;20455;-75
2022/03/07 08:37:04;;;;;;;8.88;2.55;;;;;;;1.74;58.84;98870.28;6078287;23;20108;-74
2022/03/07 08:39:30;;;;;;;16.55;3.25;;;;;;;1.89;58.21;98858.47;6084272;23;20058;-76
2022/03/07 08:41:56;;;;;;;12.48;3.20;;;;;;;2.27;57.23;98873.38;6086062;23;20026;-73
2022/03/07 08:44:21;;;;;;;10.90;3.45;;;;;;;2.36;57.21;98862.84;6072992;23;20022;-74
2022/03/07 08:46:48;;;;;;;13.20;2.65;;;;;;;2.45;56.57;98879.97;6049301;23;20025;-73
2022/03/07 08:49:13;;;;;;;17.05;3.88;;;;;;;2.38;56.95;98878.75;6046324;23;20026;-74
2022/03/07 08:51:43;;;;;;;9.13;2.65;;;;;;;2.65;55.89;98889.91;6076801;23;20054;-77
2022/03/07 08:54:10;;;;;;;18.92;3.38;;;;;;;2.94;56.03;98883.25;6058084;23;20025;-76
2022/03/07 08:56:36;;;;;;;13.23;3.47;;;;;;;3.27;54.68;98883.22;6107680;23;20113;-76
2022/03/07 08:59:02;;;;;;;14.00;3.28;;;;;;;3.87;53.46;98878.28;6059521;23;20026;-76
2022/03/07 09:01:28;;;;;;;22.10;3.53;;;;;;;3.74;52.45;98878.47;6085077;23;20009;-77
2022/03/07 09:03:56;;;;;;;16.67;2.72;;;;;;;3.43;52.91;98832.03;6077096;23;20010;-73
2022/03/07 09:06:22;;;;;;;10.57;2.63;;;;;;;2.94;53.01;98849.41;6071385;23;20026;-70
2022/03/07 09:08:49;;;;;;;11.35;2.55;;;;;;;3.23;53.01;98883.59;6068603;23;20102;-68
2022/03/07 09:11:15;;;;;;;14.13;2.88;;;;;;;3.27;53.61;98877.88;6072250;23;20017;-71
2022/03/07 09:13:41;;;;;;;11.77;2.40;;;;;;;3.18;53.58;98880.44;6052960;23;20026;-73
2022/03/07 09:16:07;;;;;;;11.50;2.40;;;;;;;3.25;52.76;98871.78;6097193;23;20049;-70
2022/03/07 09:18:33;;;;;;;17.40;2.95;;;;;;;3.17;53.19;98878.75;6072532;23;20049;-74
2022/03/07 09:20:59;;;;;;;40.50;4.60;;;;;;;3.36;53.54;98871.81;6057059;23;20503;-74
2022/03/07 09:23:27;;;;;;;13.57;2.95;;;;;;;3.31;52.85;98870.47;6078132;23;20021;-72
2022/03/07 09:25:52;;;;;;;13.63;4.10;;;;;;;3.35;52.71;98878.09;6055760;23;20030;-75
2022/03/07 09:28:18;;;;;;;10.43;2.50;;;;;;;3.38;52.58;98872.50;6076427;23;20022;-70
2022/03/07 09:30:44;;;;;;;21.35;4.65;;;;;;;3.81;52.75;98873.47;6078796;23;20085;-74
2022/03/07 09:33:10;;;;;;;14.82;3.90;;;;;;;4.05;51.18;98871.41;6071687;23;20403;-74
2022/03/07 09:35:36;;;;;;;14.98;2.85;;;;;;;3.86;50.91;98876.59;6073994;23;20025;-73
2022/03/07 09:38:02;;;;;;;9.77;2.50;;;;;;;3.75;50.83;98874.81;6049790;23;20097;-75
2022/03/07 09:40:28;;;;;;;14.57;2.78;;;;;;;3.72;50.94;98860.88;6078291;23;20021;-73
2022/03/07 09:42:54;;;;;;;23.38;3.67;;;;;;;4.07;50.08;98874.81;6073996;23;20032;-72
2022/03/07 09:45:20;;;;;;;19.50;2.63;;;;;;;4.42;49.57;98872.78;6073498;23;20033;-73
2022/03/07 09:47:48;;;;;;;13.23;2.55;;;;;;;4.63;48.59;98870.94;6049090;23;20022;-70
2022/03/07 09:50:15;;;;;;;8.38;2.42;;;;;;;5.23;47.25;98876.41;6075638;23;20018;-72
2022/03/07 09:52:44;;;;;;;10.15;2.75;;;;;;;5.64;45.55;98877.22;6100284;23;20357;-70
2022/03/07 09:55:13;;;;;;;15.07;3.25;;;;;;;6.69;44.17;98863.84;6097456;23;20053;-72
2022/03/07 09:57:41;;;;;;;12.32;2.30;;;;;;;5.30;46.44;98853.41;6099756;23;20074;-72
2022/03/07 10:00:09;;;;;;;8.13;2.28;;;;;;;6.78;44.53;98871.06;6072212;23;20072;-69
2022/03/07 10:02:35;;;;;;;11.10;2.03;;;;;;;7.08;42.74;98869.09;6128447;23;20050;-71
2022/03/07 10:05:02;;;;;;;14.77;2.40;;;;;;;8.43;40.17;98862.75;6102399;23;20337;-71
2022/03/07 10:07:28;;;;;;;10.15;3.00;;;;;;;11.08;34.50;98863.06;6096525;23;20068;-73
2022/03/07 10:10:06;;;;;;;11.18;2.83;;;;;;;11.69;32.79;98818.09;6082102;23;20041;-72
2022/03/07 10:12:32;;;;;;;5.55;1.70;;;;;;;10.92;32.40;98860.38;6079525;23;20028;-70
2022/03/07 10:14:58;;;;;;;11.32;2.72;;;;;;;11.41;33.25;98852.94;6104292;23;20026;-69
2022/03/07 10:17:26;;;;;;;16.98;2.75;;;;;;;12.58;31.64;98863.66;6096714;23;20025;-72
2022/03/07 10:19:54;;;;;;;15.10;2.70;;;;;;;11.54;32.47;98863.19;6072480;23;20018;-72
2022/03/07 10:22:26;;;;;;;14.80;3.25;;;;;;;12.50;31.98;98848.31;6075854;23;20022;-71
2022/03/07 10:25:01;;;;;;;9.57;1.75;;;;;;;12.30;30.91;98856.97;6100048;23;20483;-72
2022/03/07 10:27:31;;;;;;;7.90;2.20;;;;;;;10.22;33.26;98861.78;6095301;23;20029;-69
2022/03/07 10:29:57;;;;;;;7.90;1.83;;;;;;;8.71;36.58;98859.94;6095518;23;20017;-68
2022/03/07 10:32:23;;;;;;;11.40;2.20;;;;;;;8.36;37.85;98867.06;6048646;23;20116;-68
2022/03/07 10:34:50;;;;;;;7.90;2.20;;;;;;;10.05;35.89;98835.75;6099639;23;20048;-72
2022/03/07 10:37:16;;;;;;;9.23;2.47;;;;;;;11.91;32.86;98858.94;6074552;23;20032;-71
2022/03/07 10:39:52;;;;;;;13.00;2.95;;;;;;;10.81;33.71;98859.72;6096938;23;20037;-71
2022/03/07 10:42:19;;;;;;;8.25;2.60;;;;;;;11.33;32.62;98861.94;6095999;23;20405;-69
2022/03/07 10:44:46;;;;;;;8.45;2.55;;;;;;;12.00;31.99;98858.72;6095024;23;20037;-68
2022/03/07 10:47:14;;;;;;;16.75;2.53;;;;;;;12.78;30.70;98868.38;6047249;23;20014;-71
2022/03/07 10:49:48;;;;;;;14.65;2.42;;;;;;;11.35;32.79;98865.31;6076161;23;20030;-74
2022/03/07 10:52:14;;;;;;;10.75;2.10;;;;;;;7.94;37.21;98850.72;6082483;23;20458;-77
2022/03/07 10:54:41;;;;;;;7.85;2.15;;;;;;;8.03;37.94;98865.09;6083569;23;20096;-72
2022/03/07 10:57:08;;;;;;;6.60;1.80;;;;;;;7.45;38.74;98867.19;6057666;23;20279;-79
2022/03/07 10:59:36;;;;;;;9.32;1.83;;;;;;;6.99;40.67;98860.09;6088819;23;20448;-73
2022/03/07 11:02:10;;;;;;;8.00;2.30;;;;;;;6.66;40.84;98858.81;6110271;23;20022;-78
2022/03/07 11:04:41;;;;;;;9.57;2.38;;;;;;;5.95;41.87;98865.38;6086875;23;20026;-74
2022/03/07 11:07:09;;;;;;;9.52;2.72;;;;;;;5.47;43.95;98823.28;6088100;23;20018;-76
2022/03/07 11:09:37;;;;;;;15.57;3.17;;;;;;;5.35;43.90;98824.38;6062611;23;20022;-76
2022/03/07 11:12:04;;;;;;;8.60;2.38;;;;;;;5.39;44.75;98860.66;6088380;23;20081;-76
2022/03/07 11:14:30;;;;;;;9.90;2.03;;;;;;;5.19;44.69;98845.50;6106125;23;20026;-76
2022/03/07 11:16:58;;;;;;;10.75;2.10;;;;;;;4.52;45.32;98825.50;6105743;23;20022;-74
2022/03/07 11:19:26;;;;;;;10.02;2.67;;;;;;;4.89;45.59;98860.63;6055571;23;20017;-73
2022/03/07 11:21:54;;;;;;;7.10;2.50;;;;;;;6.49;41.89;98842.44;6078637;23;20408;-70
2022/03/07 11:24:22;;;;;;;9.75;2.50;;;;;;;8.28;39.24;98852.69;6075719;23;20407;-74
2022/03/07 11:26:50;;;;;;;12.40;2.20;;;;;;;7.05;40.70;98842.50;6057575;23;20022;-74
2022/03/07 11:35:02;;;;;;;9.07;1.60;;;;;;;5.01;44.48;98854.22;6048741;23;20089;-75
2022/03/07 11:37:30;;;;;;;8.55;2.08;;;;;;;5.10;44.92;98867.75;6026493;23;20030;-74
2022/03/07 11:39:58;;;;;;;9.05;1.77;;;;;;;5.36;43.56;98873.47;5998368;23;20161;-75
2022/03/07 11:45:18;;;;;;;9.43;1.73;;;;;;;5.27;44.43;98853.72;6084304;23;20093;-75
2022/03/07 11:47:45;;;;;;;8.60;1.92;;;;;;;4.81;44.51;98839.03;6057435;23;20041;-73